Time Latitude Longitude Accuracy (66% radius in meters) Altitude (meters) Speed (km/hour) Bearing (degrees) Battery (%) GPS flag
11:03:01 56.387660 43.737169 6 92.199996948242 1.8200274705887 202.19999694824 11 0 delete
11:02:50 56.387660 43.737169 6 92.199996948242 1.8200274705887 202.19999694824 11 0 delete
11:02:38 56.387660 43.737169 6 92.199996948242 1.8200274705887 202.19999694824 11 0 delete
11:02:26 56.387660 43.737169 6 92.199996948242 1.8200274705887 202.19999694824 11 0 delete
11:02:15 56.387660 43.737169 6 92.199996948242 1.8200274705887 202.19999694824 11 0 delete
11:02:04 56.387660 43.737169 6 92.199996948242 1.8200274705887 202.19999694824 11 0 delete
11:01:53 56.387660 43.737169 6 92.199996948242 1.8200274705887 202.19999694824 11 0 delete
11:01:42 56.387660 43.737169 6 92.199996948242 1.8200274705887 202.19999694824 11 0 delete
11:01:30 56.387660 43.737169 6 92.199996948242 1.8200274705887 202.19999694824 11 0 delete
10:01:15 56.387660 43.737169 6 92.199996948242 1.8200274705887 202.19999694824 11 1 delete
11:01:07 56.387803 43.737170 6 96.599998474121 0 0 11 0 delete
10:00:53 56.387803 43.737170 6 96.599998474121 0 0 11 1 delete
11:00:44 56.387855 43.737022 20 94.699996948242 0 0 11 0 delete
10:00:28 56.387855 43.737022 20 94.699996948242 0 0 11 1 delete
11:00:22 56.387877 43.736528 5 88.900001525879 2 163.69999694824 11 0 delete
11:00:11 56.387877 43.736528 5 88.900001525879 2 163.69999694824 11 0 delete
11:00:00 56.387877 43.736528 5 88.900001525879 2 163.69999694824 11 0 delete
10:59:49 56.387877 43.736528 5 88.900001525879 2 163.69999694824 11 0 delete
10:59:37 56.387877 43.736528 5 88.900001525879 2 163.69999694824 11 0 delete
10:59:26 56.387877 43.736528 5 88.900001525879 2 163.69999694824 11 0 delete
10:59:14 56.387877 43.736528 5 88.900001525879 2 163.69999694824 11 0 delete
10:59:03 56.387877 43.736528 5 88.900001525879 2 163.69999694824 11 0 delete
10:58:51 56.387877 43.736528 5 88.900001525879 2 163.69999694824 11 0 delete
10:58:40 56.387877 43.736528 5 88.900001525879 2 163.69999694824 11 0 delete
10:58:28 56.387877 43.736528 5 88.900001525879 2 163.69999694824 11 0 delete
09:58:09 56.387877 43.736528 5 88.900001525879 2 163.69999694824 11 1 delete
09:58:03 56.387980 43.736482 5 88.199996948242 2 221 11 1 delete
09:57:58 56.388059 43.736595 5 89.599998474121 2.25 228.30000305176 11 1 delete
09:57:54 56.388069 43.736757 5 87.199996948242 2.5 280.89999389648 11 1 delete
09:57:50 56.388009 43.736926 5 87.300003051758 2.7950849533081 340.29998779297 11 1 delete
09:57:46 56.387909 43.736960 5 90.300003051758 2.25 339.5 11 1 delete
09:57:38 56.387817 43.736918 6 95.900001525879 1.3462911844254 85 11 1 delete
09:57:31 56.387819 43.736726 7 100.69999694824 2.7950849533081 104.5 11 1 delete
09:57:23 56.387909 43.736372 7 102.40000152588 1.5811388492584 89.400001525879 11 1 delete
09:57:17 56.387923 43.736173 6 97.400001525879 3 95.300003051758 11 1 delete
09:57:10 56.387931 43.735961 7 99.5 2.75 91.099998474121 11 1 delete
09:57:08 56.387978 43.735820 6 98.199996948242 3.4003677368164 61.900001525879 11 1 delete
09:57:04 56.387923 43.735655 7 92.5 2.25 110.09999847412 11 1 delete
09:56:59 56.387958 43.735465 6 91.900001525879 2.7950849533081 108.80000305176 11 1 delete
09:56:55 56.387990 43.735302 7 89 3.288236618042 108.69999694824 11 1 delete
09:56:53 56.388017 43.735127 8 90.800003051758 2.3048861026764 107.59999847412 11 1 delete
09:56:49 56.388008 43.734915 8 90.099998474121 2.9261748790741 162.69999694824 11 1 delete
09:56:44 56.388127 43.734850 6 88.5 2.25 157.89999389648 11 1 delete
09:56:38 56.388220 43.734802 6 91.900001525879 2 158.19999694824 11 1 delete
09:56:32 56.388323 43.734817 6 89.5 2.0615527629852 195.39999389648 11 1 delete
09:56:26 56.388417 43.734855 5 93.400001525879 2.75 186.39999389648 11 1 delete
09:56:12 56.388521 43.734890 5 93.300003051758 2 339.29998779297 11 1 delete
10:56:11 56.388424 43.734876 5 93.599998474121 0 0 11 0 delete
09:55:58 56.388424 43.734876 5 93.599998474121 0 0 11 1 delete
09:55:44 56.388333 43.734873 5 93 2.5 12.60000038147 11 1 delete